createdAt,value
2022-08-06T00:00:03.262Z,102627.28
2022-08-06T00:02:25.713Z,102633.53
2022-08-06T00:04:57.931Z,102633.06
2022-08-06T00:07:25.760Z,102639.31
2022-08-06T00:09:59.923Z,102646.84
2022-08-06T00:12:35.221Z,102644.13
2022-08-06T00:15:12.162Z,102643.97
2022-08-06T00:17:41.043Z,102643.09
2022-08-06T00:20:08.317Z,102647.06
2022-08-06T00:22:37.275Z,102644.31
2022-08-06T00:25:04.227Z,102643.69
2022-08-06T00:27:38.942Z,102643.38
2022-08-06T00:30:14.824Z,102655.66
2022-08-06T00:32:46.484Z,102637.72
2022-08-06T00:35:20.178Z,102637.25
2022-08-06T00:37:57.372Z,102644.72
2022-08-06T00:40:30.642Z,102644.91
2022-08-06T00:43:06.432Z,102647.75
2022-08-06T00:45:38.070Z,102653.28
2022-08-06T00:48:17.240Z,102664.13
2022-08-06T00:51:00.922Z,102668.25
2022-08-06T00:53:34.039Z,102664.13
2022-08-06T00:56:08.404Z,102666.41
2022-08-06T00:58:40.563Z,102676.47
2022-08-06T01:01:17.234Z,102677.91
2022-08-06T01:03:51.634Z,102681.34
2022-08-06T01:06:57.293Z,102684.69
2022-08-06T01:09:10.201Z,102687.81
2022-08-06T01:11:38.193Z,102684.34
2022-08-06T01:14:06.015Z,102686.97
2022-08-06T01:16:45.321Z,102692.16
2022-08-06T01:19:29.517Z,102687.91
2022-08-06T01:22:31.269Z,102693.03
2022-08-06T01:25:04.264Z,102692.13
2022-08-06T01:28:00.879Z,102693.72
2022-08-06T01:30:38.727Z,102695.56
2022-08-06T01:33:15.597Z,102692.66
2022-08-06T01:35:54.915Z,102691.38
2022-08-06T01:38:36.826Z,102694.13
2022-08-06T01:41:14.123Z,102700.28
2022-08-06T01:44:07.072Z,102708.44
2022-08-06T01:46:32.594Z,102709.16
2022-08-06T01:49:09.603Z,102709.97
2022-08-06T01:52:14.023Z,102701.50
2022-08-06T01:54:43.592Z,102713.50
2022-08-06T01:57:14.519Z,102705.16
2022-08-06T01:59:56.348Z,102705.88
2022-08-06T02:02:28.648Z,102701.38
2022-08-06T02:05:01.774Z,102701.75
2022-08-06T02:08:36.806Z,102708.38
2022-08-06T02:10:33.829Z,102706.50
2022-08-06T02:13:03.767Z,102710.31
2022-08-06T02:15:45.995Z,102715.44
2022-08-06T02:18:35.227Z,102709.09
2022-08-06T02:21:18.935Z,102720.38
2022-08-06T02:23:55.342Z,102717.53
2022-08-06T02:26:25.718Z,102715.31
2022-08-06T02:29:00.939Z,102702.75
2022-08-06T02:31:27.459Z,102703.56
2022-08-06T02:34:02.554Z,102715.41
2022-08-06T02:36:50.668Z,102706.28
2022-08-06T02:39:29.840Z,102706.38
2022-08-06T02:42:18.793Z,102713.84
2022-08-06T02:45:09.723Z,102707.00
2022-08-06T02:48:09.508Z,102713.56
2022-08-06T02:50:43.694Z,102716.75
2022-08-06T02:53:24.901Z,102713.25
2022-08-06T02:56:07.428Z,102704.97
2022-08-06T02:58:39.511Z,102710.53
2022-08-06T03:01:22.174Z,102717.97
2022-08-06T03:03:59.161Z,102723.09
2022-08-06T03:06:30.614Z,102726.78
2022-08-06T03:08:58.923Z,102725.28
2022-08-06T03:11:27.087Z,102732.59
2022-08-06T03:14:01.607Z,102726.34
2022-08-06T03:16:36.269Z,102729.72
2022-08-06T03:19:57.832Z,102731.84
2022-08-06T03:21:55.730Z,102725.00
2022-08-06T03:24:26.482Z,102729.94
2022-08-06T03:26:57.311Z,102731.50
2022-08-06T03:29:26.269Z,102727.91
2022-08-06T03:31:58.482Z,102732.25
2022-08-06T03:34:42.311Z,102735.13
2022-08-06T03:37:10.133Z,102745.34
2022-08-06T03:39:42.885Z,102745.66
2022-08-06T03:42:13.937Z,102748.66
2022-08-06T03:44:40.777Z,102747.19
2022-08-06T03:47:31.086Z,102749.50
2022-08-06T03:50:25.830Z,102739.28
2022-08-06T03:53:20.453Z,102740.28
2022-08-06T03:55:56.966Z,102739.69
2022-08-06T03:58:28.529Z,102748.75
2022-08-06T04:01:04.105Z,102746.22
2022-08-06T04:03:39.458Z,102749.75
2022-08-06T04:06:16.192Z,102757.09
2022-08-06T04:08:47.474Z,102755.75
2022-08-06T04:12:13.543Z,102761.13
2022-08-06T04:14:06.962Z,102758.66
2022-08-06T04:16:36.113Z,102755.13
2022-08-06T04:19:09.268Z,102749.41
2022-08-06T04:23:05.626Z,102757.53
2022-08-06T04:24:30.030Z,102765.28
2022-08-06T04:27:00.188Z,102761.88
2022-08-06T04:29:51.101Z,102766.69
2022-08-06T04:32:29.942Z,102769.69
2022-08-06T04:36:05.143Z,102775.59
2022-08-06T04:37:52.937Z,102774.06
2022-08-06T04:40:35.027Z,102780.66
2022-08-06T04:43:08.556Z,102778.34
2022-08-06T04:46:18.300Z,102783.00
2022-08-06T04:48:24.824Z,102775.34
2022-08-06T04:50:54.529Z,102788.97
2022-08-06T04:53:43.452Z,102780.47
2022-08-06T04:56:09.469Z,102798.19
2022-08-06T04:58:42.449Z,102790.94
2022-08-06T05:01:11.277Z,102795.09
2022-08-06T05:04:07.522Z,102806.69
2022-08-06T05:06:32.915Z,102800.84
2022-08-06T05:09:07.247Z,102808.63
2022-08-06T05:12:22.996Z,102807.75
2022-08-06T05:14:53.424Z,102817.38
2022-08-06T05:17:29.631Z,102810.47
2022-08-06T05:20:12.968Z,102820.56
2022-08-06T05:23:01.313Z,102818.16
2022-08-06T05:25:30.479Z,102824.50
2022-08-06T05:28:11.336Z,102823.00
2022-08-06T05:30:47.021Z,102822.09
2022-08-06T05:33:30.517Z,102819.47
2022-08-06T05:36:05.259Z,102822.50
2022-08-06T05:38:37.247Z,102823.81
2022-08-06T05:41:09.386Z,102828.84
2022-08-06T05:43:59.633Z,102826.34
2022-08-06T05:46:30.926Z,102832.75
2022-08-06T05:49:31.317Z,102837.31
2022-08-06T05:52:14.536Z,102841.59
2022-08-06T05:55:03.952Z,102834.03
2022-08-06T05:57:41.345Z,102840.81
2022-08-06T06:00:31.575Z,102847.75
2022-08-06T06:03:07.778Z,102849.59
2022-08-06T06:06:06.911Z,102843.09
2022-08-06T06:08:37.890Z,102842.97
2022-08-06T06:11:10.029Z,102844.94
2022-08-06T06:13:57.938Z,102843.41
2022-08-06T06:16:29.829Z,102845.38
2022-08-06T06:19:15.093Z,102863.34
2022-08-06T06:22:03.838Z,102850.88
2022-08-06T06:24:36.562Z,102860.34
2022-08-06T06:27:23.399Z,102865.34
2022-08-06T06:30:10.433Z,102868.91
2022-08-06T06:33:01.686Z,102859.09
2022-08-06T06:35:54.834Z,102862.63
2022-08-06T06:38:24.733Z,102859.69
2022-08-06T06:41:19.989Z,102867.25
2022-08-06T06:43:57.335Z,102854.84
2022-08-06T06:46:43.598Z,102856.41
2022-08-06T06:49:59.567Z,102855.56
2022-08-06T06:52:30.011Z,102856.28
2022-08-06T06:55:19.413Z,102855.94
2022-08-06T06:57:58.861Z,102865.97
2022-08-06T07:00:44.788Z,102868.22
2022-08-06T07:03:15.861Z,102867.16
2022-08-06T07:06:05.055Z,102870.91
2022-08-06T07:08:37.508Z,102862.63
2022-08-06T07:11:10.227Z,102862.38
2022-08-06T07:13:47.572Z,102873.38
2022-08-06T07:16:34.765Z,102876.03
2022-08-06T07:19:05.568Z,102879.84
2022-08-06T07:21:33.102Z,102872.72
2022-08-06T07:24:06.630Z,102876.19
2022-08-06T07:26:50.686Z,102872.47
2022-08-06T07:29:49.515Z,102873.03
2022-08-06T07:32:11.193Z,102874.41
2022-08-06T07:34:55.998Z,102875.13
2022-08-06T07:37:38.342Z,102877.66
2022-08-06T07:40:08.222Z,102875.84
2022-08-06T07:42:37.473Z,102873.69
2022-08-06T07:45:14.382Z,102875.66
2022-08-06T07:47:55.214Z,102876.34
2022-08-06T07:50:25.367Z,102868.53
2022-08-06T07:52:55.743Z,102869.56
2022-08-06T07:55:26.411Z,102877.09
2022-08-06T07:58:00.440Z,102873.19
2022-08-06T08:00:28.943Z,102872.69
2022-08-06T08:03:43.499Z,102875.28
2022-08-06T08:06:25.017Z,102872.25
2022-08-06T08:08:58.177Z,102881.50
2022-08-06T08:12:16.217Z,102882.09
2022-08-06T08:14:15.623Z,102886.84
2022-08-06T08:16:42.238Z,102888.16
2022-08-06T08:19:35.028Z,102882.38
2022-08-06T08:22:10.033Z,102880.28
2022-08-06T08:24:38.311Z,102882.88
2022-08-06T08:27:11.922Z,102892.47
2022-08-06T08:29:51.487Z,102888.66
2022-08-06T08:32:22.019Z,102884.06
2022-08-06T08:34:52.859Z,102897.66
2022-08-06T08:37:20.832Z,102891.31
2022-08-06T08:39:47.735Z,102890.88
2022-08-06T08:42:32.289Z,102893.72
2022-08-06T08:45:02.194Z,102891.94
2022-08-06T08:47:46.588Z,102895.88
2022-08-06T08:50:20.384Z,102891.59
2022-08-06T08:52:51.285Z,102903.78
2022-08-06T08:57:02.275Z,102897.00
2022-08-06T08:58:40.449Z,102889.84
2022-08-06T09:01:00.852Z,102893.91
2022-08-06T09:03:27.903Z,102892.56
2022-08-06T09:05:56.871Z,102895.78
2022-08-06T09:08:59.699Z,102897.22
2022-08-06T09:12:03.253Z,102903.72
2022-08-06T09:14:04.458Z,102895.72
2022-08-06T09:16:36.290Z,102899.66
2022-08-06T09:19:04.901Z,102896.63
2022-08-06T09:21:36.981Z,102895.25
2022-08-06T09:24:05.324Z,102896.16
2022-08-06T09:26:53.663Z,102898.38
2022-08-06T09:29:24.019Z,102897.09
2022-08-06T09:32:01.712Z,102902.34
2022-08-06T09:34:39.085Z,102896.69
2022-08-06T09:37:08.644Z,102903.84
2022-08-06T09:39:46.594Z,102898.44
2022-08-06T09:42:49.267Z,102902.88
2022-08-06T09:45:42.057Z,102892.47
2022-08-06T09:48:17.356Z,102894.81
2022-08-06T09:50:50.742Z,102894.59
2022-08-06T09:53:21.075Z,102891.69
2022-08-06T09:55:57.751Z,102895.00
2022-08-06T09:58:37.321Z,102892.56
2022-08-06T10:01:23.407Z,102887.75
2022-08-06T10:04:05.341Z,102897.53
2022-08-06T10:06:39.812Z,102897.94
2022-08-06T10:09:41.812Z,102896.31
2022-08-06T10:11:59.874Z,102893.47
2022-08-06T10:14:26.343Z,102892.25
2022-08-06T10:17:09.734Z,102892.75
2022-08-06T10:19:37.646Z,102896.25
2022-08-06T10:22:13.295Z,102889.38
2022-08-06T10:24:49.715Z,102895.34
2022-08-06T10:27:23.260Z,102880.94
2022-08-06T10:29:52.387Z,102876.09
2022-08-06T10:32:50.312Z,102873.19
2022-08-06T10:35:18.797Z,102871.84
2022-08-06T10:37:53.301Z,102885.16
2022-08-06T10:40:30.134Z,102875.28
2022-08-06T10:42:59.921Z,102884.56
2022-08-06T10:45:48.728Z,102882.31
2022-08-06T10:49:00.038Z,102885.41
2022-08-06T10:51:05.352Z,102880.56
2022-08-06T10:54:00.961Z,102884.47
2022-08-06T10:56:21.694Z,102875.47
2022-08-06T10:58:53.985Z,102878.06
2022-08-06T11:01:43.900Z,102872.22
2022-08-06T11:04:22.404Z,102872.22
2022-08-06T11:07:07.674Z,102867.63
2022-08-06T11:10:14.626Z,102870.00
2022-08-06T11:12:57.400Z,102864.31
2022-08-06T11:15:24.902Z,102861.19
2022-08-06T11:18:07.660Z,102867.06
2022-08-06T11:20:46.629Z,102864.31
2022-08-06T11:23:52.869Z,102865.81
2022-08-06T11:26:02.981Z,102867.78
2022-08-06T11:28:34.416Z,102856.44
2022-08-06T11:31:03.515Z,102865.84
2022-08-06T11:33:39.009Z,102863.41
2022-08-06T11:36:11.194Z,102863.31
2022-08-06T11:38:48.736Z,102873.47
2022-08-06T11:41:50.497Z,102865.75
2022-08-06T11:44:17.170Z,102861.13
2022-08-06T11:46:48.313Z,102864.81
2022-08-06T11:49:57.510Z,102846.75
2022-08-06T11:52:37.645Z,102851.56
2022-08-06T11:55:12.799Z,102862.19
2022-08-06T11:57:49.663Z,102854.91
2022-08-06T12:00:23.528Z,102849.00
2022-08-06T12:02:54.659Z,102848.69
2022-08-06T12:05:23.450Z,102850.25
2022-08-06T12:08:42.313Z,102841.50
2022-08-06T12:11:36.220Z,102840.31
2022-08-06T12:14:33.274Z,102839.22
2022-08-06T12:16:53.546Z,102838.34
2022-08-06T12:19:22.038Z,102842.81
2022-08-06T12:21:57.196Z,102837.91
2022-08-06T12:24:35.652Z,102826.00
2022-08-06T12:27:13.676Z,102826.16
2022-08-06T12:29:42.325Z,102833.66
2022-08-06T12:32:26.828Z,102829.00
2022-08-06T12:34:58.604Z,102830.72
2022-08-06T12:37:48.093Z,102838.22
2022-08-06T12:40:27.707Z,102834.72
2022-08-06T12:43:14.505Z,102835.63
2022-08-06T12:46:06.305Z,102838.00
2022-08-06T12:48:31.337Z,102840.81
2022-08-06T12:51:03.953Z,102830.03
2022-08-06T12:53:40.180Z,102833.03
2022-08-06T12:56:29.133Z,102833.28
2022-08-06T12:58:58.828Z,102826.03
2022-08-06T13:02:11.894Z,102834.56
2022-08-06T13:04:17.082Z,102841.81
2022-08-06T13:06:48.913Z,102828.97
2022-08-06T13:09:17.890Z,102832.53
2022-08-06T13:11:51.632Z,102828.16
2022-08-06T13:14:19.568Z,102823.03
2022-08-06T13:16:56.390Z,102824.91
2022-08-06T13:19:33.240Z,102826.00
2022-08-06T13:22:08.603Z,102822.69
2022-08-06T13:24:35.961Z,102817.88
2022-08-06T13:27:05.997Z,102819.72
2022-08-06T13:30:31.069Z,102822.72
2022-08-06T13:32:33.987Z,102818.31
2022-08-06T13:35:17.255Z,102806.25
2022-08-06T13:37:57.090Z,102811.03
2022-08-06T13:40:46.303Z,102810.41
2022-08-06T13:43:39.627Z,102809.16
2022-08-06T13:46:16.670Z,102808.59
2022-08-06T13:48:46.316Z,102801.63
2022-08-06T13:51:27.079Z,102802.59
2022-08-06T13:53:57.232Z,102803.72
2022-08-06T13:56:28.188Z,102797.94
2022-08-06T13:58:59.353Z,102803.41
2022-08-06T14:01:34.934Z,102794.44
2022-08-06T14:04:11.737Z,102796.91
2022-08-06T14:06:42.999Z,102792.59
2022-08-06T14:09:19.761Z,102800.31
2022-08-06T14:11:51.458Z,102801.94
2022-08-06T14:14:22.306Z,102799.91
2022-08-06T14:16:49.385Z,102798.59
2022-08-06T14:20:14.124Z,102805.19
2022-08-06T14:22:04.111Z,102798.78
2022-08-06T14:24:33.038Z,102803.50
2022-08-06T14:27:15.526Z,102801.22
2022-08-06T14:30:28.990Z,102796.81
2022-08-06T14:32:31.330Z,102794.69
2022-08-06T14:34:58.921Z,102792.34
2022-08-06T14:37:32.829Z,102789.06
2022-08-06T14:40:32.663Z,102789.47
2022-08-06T14:43:18.259Z,102780.44
2022-08-06T14:45:44.698Z,102784.69
2022-08-06T14:48:11.230Z,102781.94
2022-08-06T14:50:42.110Z,102781.56
2022-08-06T14:53:16.209Z,102775.34
2022-08-06T14:56:07.217Z,102770.28
2022-08-06T14:58:30.827Z,102767.06
2022-08-06T15:00:57.638Z,102781.31
2022-08-06T15:03:27.690Z,102774.22
2022-08-06T15:06:04.358Z,102772.25
2022-08-06T15:08:34.388Z,102770.31
2022-08-06T15:11:05.894Z,102773.03
2022-08-06T15:13:40.757Z,102766.94
2022-08-06T15:16:10.659Z,102772.53
2022-08-06T15:19:08.680Z,102767.41
2022-08-06T15:21:44.091Z,102762.50
2022-08-06T15:24:18.242Z,102763.78
2022-08-06T15:26:48.634Z,102762.50
2022-08-06T15:29:16.846Z,102761.91
2022-08-06T15:31:46.349Z,102760.31
2022-08-06T15:34:20.484Z,102760.91
2022-08-06T15:37:02.854Z,102762.88
2022-08-06T15:39:51.625Z,102762.50
2022-08-06T15:42:20.045Z,102748.47
2022-08-06T15:44:46.958Z,102749.81
2022-08-06T15:47:14.866Z,102747.47
2022-08-06T15:50:00.920Z,102747.00
2022-08-06T15:52:28.739Z,102740.72
2022-08-06T15:55:00.926Z,102742.41
2022-08-06T15:57:49.873Z,102729.78
2022-08-06T16:00:17.853Z,102733.28
2022-08-06T16:02:50.030Z,102730.94
2022-08-06T16:05:32.372Z,102737.28
2022-08-06T16:08:10.951Z,102735.31
2022-08-06T16:10:57.703Z,102729.84
2022-08-06T16:13:24.194Z,102731.47
2022-08-06T16:15:53.248Z,102740.47
2022-08-06T16:18:31.086Z,102733.31
2022-08-06T16:21:03.483Z,102728.91
2022-08-06T16:23:58.032Z,102740.66
2022-08-06T16:26:30.377Z,102726.03
2022-08-06T16:29:07.711Z,102737.03
2022-08-06T16:31:37.721Z,102746.13
2022-08-06T16:34:14.267Z,102737.00
2022-08-06T16:36:42.631Z,102740.66
2022-08-06T16:39:13.309Z,102730.88
2022-08-06T16:41:59.278Z,102734.03
2022-08-06T16:44:34.716Z,102730.94
2022-08-06T16:47:06.495Z,102738.00
2022-08-06T16:50:17.620Z,102729.69
2022-08-06T16:52:42.186Z,102728.53
2022-08-06T16:55:08.255Z,102719.66
2022-08-06T16:57:37.299Z,102728.81
2022-08-06T17:00:06.459Z,102726.94
2022-08-06T17:02:42.105Z,102719.72
2022-08-06T17:05:17.364Z,102721.69
2022-08-06T17:07:53.862Z,102722.75
2022-08-06T17:10:25.908Z,102723.00
2022-08-06T17:15:40.985Z,102721.44
2022-08-06T17:18:28.480Z,102725.00
2022-08-06T17:20:55.665Z,102724.66
2022-08-06T17:26:09.977Z,102728.94
2022-08-06T17:28:56.454Z,102729.25
2022-08-06T17:31:58.241Z,102728.50
2022-08-06T17:34:15.335Z,102726.88
2022-08-06T17:36:50.623Z,102729.72
2022-08-06T17:39:18.082Z,102718.94
2022-08-06T17:41:52.811Z,102733.34
2022-08-06T17:44:19.831Z,102720.88
2022-08-06T17:46:48.152Z,102725.25
2022-08-06T17:49:17.898Z,102722.84
2022-08-06T17:51:45.352Z,102727.75
2022-08-06T17:54:44.698Z,102730.66
2022-08-06T17:57:00.262Z,102724.59
2022-08-06T17:59:29.808Z,102727.53
2022-08-06T18:01:58.619Z,102732.63
2022-08-06T18:04:30.646Z,102736.69
2022-08-06T18:07:01.252Z,102734.22
2022-08-06T18:10:09.027Z,102735.00
2022-08-06T18:12:28.025Z,102733.03
2022-08-06T18:14:55.269Z,102736.69
2022-08-06T18:17:21.836Z,102738.09
2022-08-06T18:19:48.754Z,102754.50
2022-08-06T18:22:22.791Z,102743.00
2022-08-06T18:24:53.316Z,102748.88
2022-08-06T18:27:55.803Z,102750.72
2022-08-06T18:30:29.835Z,102755.22
2022-08-06T18:33:10.112Z,102755.50
2022-08-06T18:35:57.281Z,102749.91
2022-08-06T18:38:32.072Z,102758.63
2022-08-06T18:41:06.228Z,102760.50
2022-08-06T18:43:49.678Z,102760.44
2022-08-06T18:46:56.910Z,102756.75
2022-08-06T18:49:26.667Z,102760.16
2022-08-06T18:51:59.869Z,102768.19
2022-08-06T18:54:26.742Z,102762.97
2022-08-06T18:56:55.485Z,102761.56
2022-08-06T18:59:29.658Z,102759.47
2022-08-06T19:01:58.227Z,102757.88
2022-08-06T19:04:27.276Z,102766.13
2022-08-06T19:06:57.123Z,102767.19
2022-08-06T19:09:33.927Z,102768.00
2022-08-06T19:12:03.791Z,102772.19
2022-08-06T19:14:44.169Z,102770.44
2022-08-06T19:17:17.523Z,102777.88
2022-08-06T19:20:19.662Z,102771.88
2022-08-06T19:22:37.893Z,102781.09
2022-08-06T19:25:09.653Z,102772.75
2022-08-06T19:28:31.436Z,102779.34
2022-08-06T19:30:38.726Z,102785.88
2022-08-06T19:33:16.244Z,102789.34
2022-08-06T19:36:03.011Z,102793.97
2022-08-06T19:38:33.515Z,102788.38
2022-08-06T19:41:01.225Z,102790.59
2022-08-06T19:44:27.685Z,102798.84
2022-08-06T19:46:30.371Z,102796.34
2022-08-06T19:49:03.267Z,102794.56
2022-08-06T19:52:03.352Z,102796.28
2022-08-06T19:54:25.971Z,102796.44
2022-08-06T19:57:02.934Z,102792.91
2022-08-06T20:00:53.667Z,102794.31
2022-08-06T20:02:20.350Z,102793.19
2022-08-06T20:04:53.269Z,102796.88
2022-08-06T20:07:25.024Z,102801.56
2022-08-06T20:10:00.379Z,102801.81
2022-08-06T20:12:33.980Z,102799.31
2022-08-06T20:15:09.637Z,102801.97
2022-08-06T20:17:46.207Z,102809.41
2022-08-06T20:20:28.749Z,102802.03
2022-08-06T20:23:08.488Z,102805.69
2022-08-06T20:26:08.660Z,102807.66
2022-08-06T20:29:07.470Z,102809.84
2022-08-06T20:31:21.098Z,102807.88
2022-08-06T20:33:58.104Z,102804.69
2022-08-06T20:36:28.587Z,102812.56
2022-08-06T20:38:55.503Z,102801.59
2022-08-06T20:41:59.129Z,102814.75
2022-08-06T20:44:09.071Z,102813.88
2022-08-06T20:47:01.729Z,102812.63
2022-08-06T20:49:29.538Z,102812.50
2022-08-06T20:52:17.409Z,102812.28
2022-08-06T20:54:52.681Z,102812.53
2022-08-06T20:57:27.720Z,102816.25
2022-08-06T20:59:56.579Z,102820.94
2022-08-06T21:02:25.571Z,102822.78
2022-08-06T21:05:13.452Z,102814.91
2022-08-06T21:07:57.647Z,102820.97
2022-08-06T21:10:31.688Z,102821.66
2022-08-06T21:13:06.577Z,102821.53
2022-08-06T21:15:54.271Z,102824.53
2022-08-06T21:18:24.687Z,102819.47
2022-08-06T21:20:53.084Z,102817.78
2022-08-06T21:23:26.160Z,102815.38
2022-08-06T21:26:08.165Z,102811.94
2022-08-06T21:28:38.164Z,102818.91
2022-08-06T21:31:04.850Z,102820.22
2022-08-06T21:33:42.544Z,102826.00
2022-08-06T21:36:19.337Z,102826.13
2022-08-06T21:38:46.094Z,102826.63
2022-08-06T21:41:55.429Z,102832.72
2022-08-06T21:44:27.400Z,102827.03
2022-08-06T21:46:59.067Z,102823.97
2022-08-06T21:49:59.505Z,102829.94
2022-08-06T21:52:28.555Z,102823.59
2022-08-06T21:55:11.296Z,102818.00
2022-08-06T21:57:49.898Z,102826.91
2022-08-06T22:00:39.761Z,102822.75
2022-08-06T22:04:34.554Z,102824.38
2022-08-06T22:06:21.190Z,102818.94
2022-08-06T22:08:46.553Z,102814.44
2022-08-06T22:12:39.151Z,102811.03
2022-08-06T22:14:08.662Z,102814.13
2022-08-06T22:16:38.462Z,102812.88
2022-08-06T22:19:04.958Z,102810.78
2022-08-06T22:21:48.332Z,102813.34
2022-08-06T22:24:18.348Z,102810.28
2022-08-06T22:26:44.830Z,102815.06
2022-08-06T22:29:18.075Z,102813.63
2022-08-06T22:31:57.429Z,102803.50
2022-08-06T22:34:31.085Z,102807.53
2022-08-06T22:37:04.081Z,102800.19
2022-08-06T22:39:38.640Z,102794.59
2022-08-06T22:42:08.073Z,102796.66
2022-08-06T22:44:51.845Z,102790.56
2022-08-06T22:47:23.183Z,102790.44
2022-08-06T22:50:00.650Z,102786.50
2022-08-06T22:52:58.683Z,102791.31
2022-08-06T22:55:18.229Z,102796.28
2022-08-06T22:59:02.388Z,102798.56
2022-08-06T23:00:34.373Z,102793.41
2022-08-06T23:03:01.688Z,102795.94
2022-08-06T23:05:30.887Z,102793.09
2022-08-06T23:07:59.830Z,102799.34
2022-08-06T23:10:27.346Z,102790.03
2022-08-06T23:12:56.937Z,102788.75
2022-08-06T23:15:39.293Z,102785.53
2022-08-06T23:18:09.831Z,102787.44
2022-08-06T23:20:36.886Z,102779.72
2022-08-06T23:23:08.965Z,102781.38
2022-08-06T23:26:01.817Z,102782.63
2022-08-06T23:28:28.359Z,102781.66
2022-08-06T23:30:55.992Z,102769.47
2022-08-06T23:33:22.494Z,102775.09
2022-08-06T23:35:50.716Z,102774.94
2022-08-06T23:38:32.237Z,102777.03
2022-08-06T23:41:00.326Z,102770.09
2022-08-06T23:43:34.739Z,102770.59
2022-08-06T23:46:03.481Z,102776.84
2022-08-06T23:48:30.713Z,102777.16
2022-08-06T23:50:58.798Z,102765.78
2022-08-06T23:54:08.732Z,102772.03
2022-08-06T23:56:15.580Z,102762.56
2022-08-06T23:58:47.025Z,102764.34
